sensor_id;sensor_type;location;lat;lon;timestamp;P1;durP1;ratioP1;P2;durP2;ratioP2
9968;SDS011;5025;48.890;9.278;2022-08-11T00:01:48;1.80;;;1.70;;
9968;SDS011;5025;48.890;9.278;2022-08-11T00:04:16;1.80;;;1.70;;
9968;SDS011;5025;48.890;9.278;2022-08-11T00:06:43;1.83;;;1.80;;
9968;SDS011;5025;48.890;9.278;2022-08-11T00:09:11;2.10;;;1.77;;
9968;SDS011;5025;48.890;9.278;2022-08-11T00:11:51;1.70;;;1.60;;
9968;SDS011;5025;48.890;9.278;2022-08-11T00:16:55;2.10;;;1.80;;
9968;SDS011;5025;48.890;9.278;2022-08-11T00:19:26;1.70;;;1.70;;
9968;SDS011;5025;48.890;9.278;2022-08-11T00:21:55;1.70;;;1.70;;
9968;SDS011;5025;48.890;9.278;2022-08-11T00:24:22;1.97;;;1.87;;
9968;SDS011;5025;48.890;9.278;2022-08-11T00:26:50;1.80;;;1.70;;
9968;SDS011;5025;48.890;9.278;2022-08-11T00:29:17;2.00;;;1.90;;
9968;SDS011;5025;48.890;9.278;2022-08-11T00:31:50;1.90;;;1.80;;
9968;SDS011;5025;48.890;9.278;2022-08-11T00:34:19;2.10;;;1.90;;
9968;SDS011;5025;48.890;9.278;2022-08-11T00:39:16;1.67;;;1.67;;
9968;SDS011;5025;48.890;9.278;2022-08-11T00:44:58;2.00;;;1.90;;
9968;SDS011;5025;48.890;9.278;2022-08-11T00:47:42;2.10;;;1.90;;
9968;SDS011;5025;48.890;9.278;2022-08-11T00:50:28;1.77;;;1.77;;
9968;SDS011;5025;48.890;9.278;2022-08-11T00:56:09;2.00;;;1.90;;
9968;SDS011;5025;48.890;9.278;2022-08-11T01:01:33;2.00;;;1.90;;
9968;SDS011;5025;48.890;9.278;2022-08-11T01:04:37;1.93;;;1.83;;
9968;SDS011;5025;48.890;9.278;2022-08-11T01:13:00;2.20;;;2.00;;
9968;SDS011;5025;48.890;9.278;2022-08-11T01:21:35;2.20;;;2.00;;
9968;SDS011;5025;48.890;9.278;2022-08-11T01:28:06;2.20;;;2.10;;
9968;SDS011;5025;48.890;9.278;2022-08-11T01:36:58;2.20;;;1.90;;
9968;SDS011;5025;48.890;9.278;2022-08-11T01:42:22;2.27;;;2.10;;
9968;SDS011;5025;48.890;9.278;2022-08-11T01:47:57;2.40;;;2.20;;
9968;SDS011;5025;48.890;9.278;2022-08-11T01:51:04;2.20;;;2.03;;
9968;SDS011;5025;48.890;9.278;2022-08-11T01:56:17;2.37;;;2.20;;
9968;SDS011;5025;48.890;9.278;2022-08-11T02:05:02;2.07;;;1.97;;
9968;SDS011;5025;48.890;9.278;2022-08-11T02:10:28;1.80;;;1.80;;
9968;SDS011;5025;48.890;9.278;2022-08-11T02:16:26;2.20;;;2.10;;
9968;SDS011;5025;48.890;9.278;2022-08-11T02:28:23;2.07;;;1.97;;
9968;SDS011;5025;48.890;9.278;2022-08-11T02:30:59;2.63;;;2.43;;
9968;SDS011;5025;48.890;9.278;2022-08-11T02:33:50;2.13;;;2.03;;
9968;SDS011;5025;48.890;9.278;2022-08-11T02:36:24;2.10;;;2.00;;
9968;SDS011;5025;48.890;9.278;2022-08-11T02:39:07;2.00;;;1.90;;
9968;SDS011;5025;48.890;9.278;2022-08-11T02:55:13;2.10;;;2.00;;
9968;SDS011;5025;48.890;9.278;2022-08-11T02:57:50;2.30;;;2.20;;
9968;SDS011;5025;48.890;9.278;2022-08-11T03:00:21;2.10;;;2.00;;
9968;SDS011;5025;48.890;9.278;2022-08-11T03:02:59;2.10;;;2.00;;
9968;SDS011;5025;48.890;9.278;2022-08-11T03:08:37;2.40;;;2.30;;
9968;SDS011;5025;48.890;9.278;2022-08-11T03:11:21;2.27;;;2.17;;
9968;SDS011;5025;48.890;9.278;2022-08-11T03:17:24;2.10;;;2.00;;
9968;SDS011;5025;48.890;9.278;2022-08-11T03:22:54;2.20;;;2.10;;
9968;SDS011;5025;48.890;9.278;2022-08-11T03:25:29;2.00;;;1.90;;
9968;SDS011;5025;48.890;9.278;2022-08-11T03:33:48;1.70;;;1.70;;
9968;SDS011;5025;48.890;9.278;2022-08-11T03:38:58;2.40;;;2.20;;
9968;SDS011;5025;48.890;9.278;2022-08-11T03:41:35;2.10;;;2.00;;
9968;SDS011;5025;48.890;9.278;2022-08-11T03:58:53;2.10;;;2.00;;
9968;SDS011;5025;48.890;9.278;2022-08-11T04:04:44;2.30;;;2.10;;
9968;SDS011;5025;48.890;9.278;2022-08-11T04:13:24;2.30;;;2.20;;
9968;SDS011;5025;48.890;9.278;2022-08-11T04:29:38;2.40;;;2.20;;
9968;SDS011;5025;48.890;9.278;2022-08-11T04:44:18;2.37;;;2.17;;
9968;SDS011;5025;48.890;9.278;2022-08-11T04:47:33;2.47;;;2.37;;
9968;SDS011;5025;48.890;9.278;2022-08-11T04:57:02;2.47;;;2.37;;
9968;SDS011;5025;48.890;9.278;2022-08-11T05:00:05;2.83;;;2.53;;
9968;SDS011;5025;48.890;9.278;2022-08-11T05:11:09;2.60;;;2.50;;
9968;SDS011;5025;48.890;9.278;2022-08-11T05:14:38;2.97;;;2.80;;
9968;SDS011;5025;48.890;9.278;2022-08-11T05:16:53;2.50;;;2.40;;
9968;SDS011;5025;48.890;9.278;2022-08-11T05:19:46;2.90;;;2.70;;
9968;SDS011;5025;48.890;9.278;2022-08-11T05:22:31;3.17;;;2.47;;
9968;SDS011;5025;48.890;9.278;2022-08-11T05:25:17;2.57;;;2.47;;
9968;SDS011;5025;48.890;9.278;2022-08-11T05:28:12;2.40;;;2.30;;
9968;SDS011;5025;48.890;9.278;2022-08-11T05:31:00;3.17;;;2.90;;
9968;SDS011;5025;48.890;9.278;2022-08-11T05:33:54;3.07;;;2.63;;
9968;SDS011;5025;48.890;9.278;2022-08-11T05:36:49;2.53;;;2.37;;
9968;SDS011;5025;48.890;9.278;2022-08-11T05:39:22;2.60;;;2.50;;
9968;SDS011;5025;48.890;9.278;2022-08-11T05:42:08;2.97;;;2.70;;
9968;SDS011;5025;48.890;9.278;2022-08-11T05:44:54;2.80;;;2.67;;
9968;SDS011;5025;48.890;9.278;2022-08-11T05:47:44;2.90;;;2.60;;
9968;SDS011;5025;48.890;9.278;2022-08-11T05:50:32;2.80;;;2.50;;
9968;SDS011;5025;48.890;9.278;2022-08-11T05:53:16;2.57;;;2.47;;
9968;SDS011;5025;48.890;9.278;2022-08-11T05:56:05;2.93;;;2.83;;
9968;SDS011;5025;48.890;9.278;2022-08-11T05:58:48;2.90;;;2.73;;
9968;SDS011;5025;48.890;9.278;2022-08-11T06:01:31;2.80;;;2.50;;
9968;SDS011;5025;48.890;9.278;2022-08-11T06:03:59;2.80;;;2.60;;
9968;SDS011;5025;48.890;9.278;2022-08-11T06:06:45;2.93;;;2.73;;
9968;SDS011;5025;48.890;9.278;2022-08-11T06:09:23;2.90;;;2.70;;
9968;SDS011;5025;48.890;9.278;2022-08-11T06:11:50;3.70;;;3.17;;
9968;SDS011;5025;48.890;9.278;2022-08-11T06:14:16;3.10;;;2.80;;
9968;SDS011;5025;48.890;9.278;2022-08-11T06:16:45;3.20;;;2.90;;
9968;SDS011;5025;48.890;9.278;2022-08-11T06:19:12;4.07;;;2.87;;
9968;SDS011;5025;48.890;9.278;2022-08-11T06:21:42;3.03;;;2.73;;
9968;SDS011;5025;48.890;9.278;2022-08-11T06:24:10;2.73;;;2.50;;
9968;SDS011;5025;48.890;9.278;2022-08-11T06:26:36;5.83;;;3.10;;
9968;SDS011;5025;48.890;9.278;2022-08-11T06:29:04;6.37;;;2.93;;
9968;SDS011;5025;48.890;9.278;2022-08-11T06:31:30;11.60;;;3.90;;
9968;SDS011;5025;48.890;9.278;2022-08-11T06:36:38;8.00;;;3.20;;
9968;SDS011;5025;48.890;9.278;2022-08-11T06:39:28;3.30;;;2.77;;
9968;SDS011;5025;48.890;9.278;2022-08-11T06:42:55;2.43;;;2.23;;
9968;SDS011;5025;48.890;9.278;2022-08-11T06:47:53;2.87;;;2.63;;
9968;SDS011;5025;48.890;9.278;2022-08-11T06:50:23;2.10;;;2.00;;
9968;SDS011;5025;48.890;9.278;2022-08-11T06:53:07;2.47;;;2.27;;
9968;SDS011;5025;48.890;9.278;2022-08-11T06:55:41;2.30;;;2.20;;
9968;SDS011;5025;48.890;9.278;2022-08-11T06:58:29;2.27;;;2.17;;
9968;SDS011;5025;48.890;9.278;2022-08-11T07:01:26;2.40;;;2.30;;
9968;SDS011;5025;48.890;9.278;2022-08-11T07:04:03;2.47;;;2.37;;
9968;SDS011;5025;48.890;9.278;2022-08-11T07:06:49;2.50;;;2.30;;
9968;SDS011;5025;48.890;9.278;2022-08-11T07:12:52;2.30;;;2.20;;
9968;SDS011;5025;48.890;9.278;2022-08-11T07:15:40;1.93;;;1.83;;
9968;SDS011;5025;48.890;9.278;2022-08-11T07:18:07;2.23;;;2.13;;
9968;SDS011;5025;48.890;9.278;2022-08-11T07:21:04;2.20;;;2.10;;
9968;SDS011;5025;48.890;9.278;2022-08-11T07:23:52;2.20;;;2.10;;
9968;SDS011;5025;48.890;9.278;2022-08-11T07:26:39;2.47;;;2.37;;
9968;SDS011;5025;48.890;9.278;2022-08-11T07:29:28;2.47;;;2.23;;
9968;SDS011;5025;48.890;9.278;2022-08-11T07:31:56;2.40;;;2.30;;
9968;SDS011;5025;48.890;9.278;2022-08-11T07:34:33;2.30;;;2.10;;
9968;SDS011;5025;48.890;9.278;2022-08-11T07:37:03;2.47;;;2.37;;
9968;SDS011;5025;48.890;9.278;2022-08-11T07:39:35;2.40;;;2.30;;
9968;SDS011;5025;48.890;9.278;2022-08-11T07:42:06;2.23;;;2.03;;
9968;SDS011;5025;48.890;9.278;2022-08-11T07:44:33;2.57;;;2.33;;
9968;SDS011;5025;48.890;9.278;2022-08-11T07:47:22;2.10;;;2.00;;
9968;SDS011;5025;48.890;9.278;2022-08-11T07:50:13;2.40;;;2.30;;
9968;SDS011;5025;48.890;9.278;2022-08-11T07:52:58;2.30;;;2.20;;
9968;SDS011;5025;48.890;9.278;2022-08-11T07:55:24;2.60;;;2.37;;
9968;SDS011;5025;48.890;9.278;2022-08-11T07:57:52;2.47;;;2.37;;
9968;SDS011;5025;48.890;9.278;2022-08-11T08:00:47;2.50;;;2.30;;
9968;SDS011;5025;48.890;9.278;2022-08-11T08:03:33;2.73;;;2.53;;
9968;SDS011;5025;48.890;9.278;2022-08-11T08:06:19;2.30;;;2.20;;
9968;SDS011;5025;48.890;9.278;2022-08-11T08:09:03;2.57;;;2.37;;
9968;SDS011;5025;48.890;9.278;2022-08-11T08:11:49;2.40;;;2.20;;
9968;SDS011;5025;48.890;9.278;2022-08-11T08:14:34;2.10;;;2.00;;
9968;SDS011;5025;48.890;9.278;2022-08-11T08:17:20;2.17;;;2.07;;
9968;SDS011;5025;48.890;9.278;2022-08-11T08:20:05;2.53;;;2.20;;
9968;SDS011;5025;48.890;9.278;2022-08-11T08:22:35;2.67;;;2.10;;
9968;SDS011;5025;48.890;9.278;2022-08-11T08:25:01;2.13;;;2.00;;
9968;SDS011;5025;48.890;9.278;2022-08-11T08:27:27;1.93;;;1.83;;
9968;SDS011;5025;48.890;9.278;2022-08-11T08:29:53;1.90;;;1.90;;
9968;SDS011;5025;48.890;9.278;2022-08-11T08:32:38;2.13;;;2.03;;
9968;SDS011;5025;48.890;9.278;2022-08-11T08:35:06;2.17;;;2.00;;
9968;SDS011;5025;48.890;9.278;2022-08-11T08:37:34;2.10;;;2.00;;
9968;SDS011;5025;48.890;9.278;2022-08-11T08:39:59;2.30;;;2.20;;
9968;SDS011;5025;48.890;9.278;2022-08-11T08:42:25;2.10;;;2.00;;
9968;SDS011;5025;48.890;9.278;2022-08-11T08:45:11;2.13;;;2.03;;
9968;SDS011;5025;48.890;9.278;2022-08-11T08:47:40;2.30;;;2.20;;
9968;SDS011;5025;48.890;9.278;2022-08-11T08:50:10;2.10;;;2.00;;
9968;SDS011;5025;48.890;9.278;2022-08-11T08:52:38;2.60;;;2.00;;
9968;SDS011;5025;48.890;9.278;2022-08-11T08:55:08;1.87;;;1.80;;
9968;SDS011;5025;48.890;9.278;2022-08-11T08:57:36;2.20;;;2.10;;
9968;SDS011;5025;48.890;9.278;2022-08-11T09:00:05;2.30;;;2.20;;
9968;SDS011;5025;48.890;9.278;2022-08-11T09:02:32;2.33;;;2.20;;
9968;SDS011;5025;48.890;9.278;2022-08-11T09:04:58;2.50;;;2.30;;
9968;SDS011;5025;48.890;9.278;2022-08-11T09:07:25;1.87;;;1.77;;
9968;SDS011;5025;48.890;9.278;2022-08-11T09:09:52;1.93;;;1.83;;
9968;SDS011;5025;48.890;9.278;2022-08-11T09:12:20;1.90;;;1.90;;
9968;SDS011;5025;48.890;9.278;2022-08-11T09:14:50;1.90;;;1.90;;
9968;SDS011;5025;48.890;9.278;2022-08-11T09:17:30;2.13;;;2.03;;
9968;SDS011;5025;48.890;9.278;2022-08-11T09:20:10;2.03;;;1.97;;
9968;SDS011;5025;48.890;9.278;2022-08-11T09:22:49;1.90;;;1.80;;
9968;SDS011;5025;48.890;9.278;2022-08-11T09:25:34;2.10;;;2.00;;
9968;SDS011;5025;48.890;9.278;2022-08-11T09:28:19;1.90;;;1.80;;
9968;SDS011;5025;48.890;9.278;2022-08-11T09:30:47;2.00;;;1.90;;
9968;SDS011;5025;48.890;9.278;2022-08-11T09:33:19;2.23;;;1.80;;
9968;SDS011;5025;48.890;9.278;2022-08-11T09:35:45;1.90;;;1.80;;
9968;SDS011;5025;48.890;9.278;2022-08-11T09:38:13;2.00;;;1.90;;
9968;SDS011;5025;48.890;9.278;2022-08-11T09:40:58;2.30;;;2.10;;
9968;SDS011;5025;48.890;9.278;2022-08-11T09:43:25;1.77;;;1.70;;
9968;SDS011;5025;48.890;9.278;2022-08-11T09:46:11;1.70;;;1.60;;
9968;SDS011;5025;48.890;9.278;2022-08-11T09:48:44;1.93;;;1.83;;
9968;SDS011;5025;48.890;9.278;2022-08-11T09:51:11;2.10;;;2.00;;
9968;SDS011;5025;48.890;9.278;2022-08-11T09:53:39;2.30;;;1.80;;
9968;SDS011;5025;48.890;9.278;2022-08-11T09:56:08;2.10;;;1.90;;
9968;SDS011;5025;48.890;9.278;2022-08-11T09:58:58;2.10;;;2.00;;
9968;SDS011;5025;48.890;9.278;2022-08-11T10:01:27;1.77;;;1.70;;
9968;SDS011;5025;48.890;9.278;2022-08-11T10:04:07;1.73;;;1.70;;
9968;SDS011;5025;48.890;9.278;2022-08-11T10:06:43;1.70;;;1.60;;
9968;SDS011;5025;48.890;9.278;2022-08-11T10:09:25;1.93;;;1.90;;
9968;SDS011;5025;48.890;9.278;2022-08-11T10:11:55;1.73;;;1.63;;
9968;SDS011;5025;48.890;9.278;2022-08-11T10:14:22;13.70;;;3.43;;
9968;SDS011;5025;48.890;9.278;2022-08-11T10:17:07;3.90;;;2.10;;
9968;SDS011;5025;48.890;9.278;2022-08-11T10:19:34;3.00;;;2.03;;
9968;SDS011;5025;48.890;9.278;2022-08-11T10:22:04;2.37;;;2.00;;
9968;SDS011;5025;48.890;9.278;2022-08-11T10:24:49;1.93;;;1.70;;
9968;SDS011;5025;48.890;9.278;2022-08-11T10:27:35;1.80;;;1.80;;
9968;SDS011;5025;48.890;9.278;2022-08-11T10:30:01;2.60;;;2.07;;
9968;SDS011;5025;48.890;9.278;2022-08-11T10:32:45;1.90;;;1.80;;
9968;SDS011;5025;48.890;9.278;2022-08-11T10:35:33;1.80;;;1.70;;
9968;SDS011;5025;48.890;9.278;2022-08-11T10:37:59;2.07;;;1.80;;
9968;SDS011;5025;48.890;9.278;2022-08-11T10:40:25;2.10;;;2.00;;
9968;SDS011;5025;48.890;9.278;2022-08-11T10:42:53;2.00;;;1.90;;
9968;SDS011;5025;48.890;9.278;2022-08-11T10:45:30;2.13;;;2.03;;
9968;SDS011;5025;48.890;9.278;2022-08-11T10:48:17;2.00;;;1.80;;
9968;SDS011;5025;48.890;9.278;2022-08-11T10:50:45;1.60;;;1.60;;
9968;SDS011;5025;48.890;9.278;2022-08-11T10:53:30;1.73;;;1.67;;
9968;SDS011;5025;48.890;9.278;2022-08-11T10:56:16;2.03;;;1.83;;
9968;SDS011;5025;48.890;9.278;2022-08-11T10:59:01;1.70;;;1.70;;
9968;SDS011;5025;48.890;9.278;2022-08-11T11:01:32;1.70;;;1.60;;
9968;SDS011;5025;48.890;9.278;2022-08-11T11:04:05;2.07;;;1.97;;
9968;SDS011;5025;48.890;9.278;2022-08-11T11:11:54;1.80;;;1.70;;
9968;SDS011;5025;48.890;9.278;2022-08-11T11:14:41;1.60;;;1.60;;
9968;SDS011;5025;48.890;9.278;2022-08-11T11:17:28;1.60;;;1.50;;
9968;SDS011;5025;48.890;9.278;2022-08-11T11:20:18;1.83;;;1.73;;
9968;SDS011;5025;48.890;9.278;2022-08-11T11:22:48;3.13;;;1.60;;
9968;SDS011;5025;48.890;9.278;2022-08-11T11:25:43;2.03;;;1.87;;
9968;SDS011;5025;48.890;9.278;2022-08-11T11:37:04;2.03;;;1.93;;
9968;SDS011;5025;48.890;9.278;2022-08-11T11:39:31;1.93;;;1.80;;
9968;SDS011;5025;48.890;9.278;2022-08-11T11:42:01;1.77;;;1.67;;
9968;SDS011;5025;48.890;9.278;2022-08-11T11:44:30;1.80;;;1.70;;
9968;SDS011;5025;48.890;9.278;2022-08-11T11:46:57;1.83;;;1.73;;
9968;SDS011;5025;48.890;9.278;2022-08-11T11:49:26;1.70;;;1.70;;
9968;SDS011;5025;48.890;9.278;2022-08-11T11:51:53;1.87;;;1.73;;
9968;SDS011;5025;48.890;9.278;2022-08-11T11:54:21;1.73;;;1.63;;
9968;SDS011;5025;48.890;9.278;2022-08-11T11:56:49;1.77;;;1.67;;
9968;SDS011;5025;48.890;9.278;2022-08-11T11:59:17;1.50;;;1.50;;
9968;SDS011;5025;48.890;9.278;2022-08-11T12:02:03;1.80;;;1.70;;
9968;SDS011;5025;48.890;9.278;2022-08-11T12:04:30;2.10;;;2.00;;
9968;SDS011;5025;48.890;9.278;2022-08-11T12:06:56;1.80;;;1.70;;
9968;SDS011;5025;48.890;9.278;2022-08-11T12:09:42;1.63;;;1.60;;
9968;SDS011;5025;48.890;9.278;2022-08-11T12:12:10;1.87;;;1.80;;
9968;SDS011;5025;48.890;9.278;2022-08-11T12:14:54;3.40;;;1.90;;
9968;SDS011;5025;48.890;9.278;2022-08-11T12:17:20;2.00;;;1.80;;
9968;SDS011;5025;48.890;9.278;2022-08-11T12:19:47;1.47;;;1.47;;
9968;SDS011;5025;48.890;9.278;2022-08-11T12:22:13;1.50;;;1.40;;
9968;SDS011;5025;48.890;9.278;2022-08-11T12:24:57;1.70;;;1.60;;
9968;SDS011;5025;48.890;9.278;2022-08-11T12:27:43;1.60;;;1.60;;
9968;SDS011;5025;48.890;9.278;2022-08-11T12:30:09;1.47;;;1.47;;
9968;SDS011;5025;48.890;9.278;2022-08-11T12:32:35;1.40;;;1.40;;
9968;SDS011;5025;48.890;9.278;2022-08-11T12:35:03;1.53;;;1.43;;
9968;SDS011;5025;48.890;9.278;2022-08-11T12:40:11;1.47;;;1.47;;
9968;SDS011;5025;48.890;9.278;2022-08-11T12:42:58;1.60;;;1.50;;
9968;SDS011;5025;48.890;9.278;2022-08-11T12:45:46;1.70;;;1.60;;
9968;SDS011;5025;48.890;9.278;2022-08-11T12:48:14;1.50;;;1.50;;
9968;SDS011;5025;48.890;9.278;2022-08-11T12:51:02;1.60;;;1.60;;
9968;SDS011;5025;48.890;9.278;2022-08-11T12:53:56;1.70;;;1.60;;
9968;SDS011;5025;48.890;9.278;2022-08-11T12:56:25;1.90;;;1.80;;
9968;SDS011;5025;48.890;9.278;2022-08-11T12:59:15;1.57;;;1.50;;
9968;SDS011;5025;48.890;9.278;2022-08-11T13:01:59;1.37;;;1.37;;
9968;SDS011;5025;48.890;9.278;2022-08-11T13:04:45;1.70;;;1.60;;
9968;SDS011;5025;48.890;9.278;2022-08-11T13:07:23;1.67;;;1.67;;
9968;SDS011;5025;48.890;9.278;2022-08-11T13:09:50;1.33;;;1.30;;
9968;SDS011;5025;48.890;9.278;2022-08-11T13:12:17;1.50;;;1.50;;
9968;SDS011;5025;48.890;9.278;2022-08-11T13:15:03;1.60;;;1.50;;
9968;SDS011;5025;48.890;9.278;2022-08-11T13:17:29;3.27;;;1.50;;
9968;SDS011;5025;48.890;9.278;2022-08-11T13:19:58;1.63;;;1.60;;
9968;SDS011;5025;48.890;9.278;2022-08-11T13:22:24;5.17;;;1.80;;
9968;SDS011;5025;48.890;9.278;2022-08-11T13:24:50;1.70;;;1.60;;
9968;SDS011;5025;48.890;9.278;2022-08-11T13:27:19;1.50;;;1.40;;
9968;SDS011;5025;48.890;9.278;2022-08-11T13:29:46;1.30;;;1.30;;
9968;SDS011;5025;48.890;9.278;2022-08-11T13:32:14;1.77;;;1.67;;
9968;SDS011;5025;48.890;9.278;2022-08-11T13:34:40;1.80;;;1.70;;
9968;SDS011;5025;48.890;9.278;2022-08-11T13:37:10;1.57;;;1.53;;
9968;SDS011;5025;48.890;9.278;2022-08-11T13:39:39;1.50;;;1.50;;
9968;SDS011;5025;48.890;9.278;2022-08-11T13:42:11;1.50;;;1.40;;
9968;SDS011;5025;48.890;9.278;2022-08-11T13:44:39;1.50;;;1.43;;
9968;SDS011;5025;48.890;9.278;2022-08-11T13:47:06;2.50;;;1.63;;
9968;SDS011;5025;48.890;9.278;2022-08-11T13:49:36;1.67;;;1.57;;
9968;SDS011;5025;48.890;9.278;2022-08-11T13:52:04;1.80;;;1.70;;
9968;SDS011;5025;48.890;9.278;2022-08-11T13:54:34;1.90;;;1.50;;
9968;SDS011;5025;48.890;9.278;2022-08-11T13:57:04;2.07;;;1.57;;
9968;SDS011;5025;48.890;9.278;2022-08-11T13:59:32;1.43;;;1.43;;
9968;SDS011;5025;48.890;9.278;2022-08-11T14:01:59;1.20;;;1.20;;
9968;SDS011;5025;48.890;9.278;2022-08-11T14:04:31;1.70;;;1.60;;
9968;SDS011;5025;48.890;9.278;2022-08-11T14:07:04;1.37;;;1.37;;
9968;SDS011;5025;48.890;9.278;2022-08-11T14:09:34;1.47;;;1.43;;
9968;SDS011;5025;48.890;9.278;2022-08-11T14:12:02;1.20;;;1.20;;
9968;SDS011;5025;48.890;9.278;2022-08-11T14:14:57;1.53;;;1.43;;
9968;SDS011;5025;48.890;9.278;2022-08-11T14:17:25;1.70;;;1.57;;
9968;SDS011;5025;48.890;9.278;2022-08-11T14:19:55;1.50;;;1.40;;
9968;SDS011;5025;48.890;9.278;2022-08-11T14:22:23;1.50;;;1.50;;
9968;SDS011;5025;48.890;9.278;2022-08-11T14:24:49;1.33;;;1.33;;
9968;SDS011;5025;48.890;9.278;2022-08-11T14:27:16;1.40;;;1.40;;
9968;SDS011;5025;48.890;9.278;2022-08-11T14:29:42;1.50;;;1.50;;
9968;SDS011;5025;48.890;9.278;2022-08-11T14:32:11;1.60;;;1.50;;
9968;SDS011;5025;48.890;9.278;2022-08-11T14:34:39;1.80;;;1.40;;
9968;SDS011;5025;48.890;9.278;2022-08-11T14:37:08;1.53;;;1.53;;
9968;SDS011;5025;48.890;9.278;2022-08-11T14:39:43;1.40;;;1.40;;
9968;SDS011;5025;48.890;9.278;2022-08-11T14:42:11;1.50;;;1.33;;
9968;SDS011;5025;48.890;9.278;2022-08-11T14:44:58;1.30;;;1.30;;
9968;SDS011;5025;48.890;9.278;2022-08-11T14:47:46;1.77;;;1.67;;
9968;SDS011;5025;48.890;9.278;2022-08-11T14:50:16;1.10;;;1.10;;
9968;SDS011;5025;48.890;9.278;2022-08-11T14:53:06;1.50;;;1.50;;
9968;SDS011;5025;48.890;9.278;2022-08-11T14:55:37;1.50;;;1.50;;
9968;SDS011;5025;48.890;9.278;2022-08-11T14:58:23;1.52;;;1.42;;
9968;SDS011;5025;48.890;9.278;2022-08-11T15:00:56;1.58;;;1.40;;
9968;SDS011;5025;48.890;9.278;2022-08-11T15:03:23;1.83;;;1.67;;
9968;SDS011;5025;48.890;9.278;2022-08-11T15:05:51;1.55;;;1.50;;
9968;SDS011;5025;48.890;9.278;2022-08-11T15:08:20;1.70;;;1.40;;
9968;SDS011;5025;48.890;9.278;2022-08-11T15:11:09;1.70;;;1.40;;
9968;SDS011;5025;48.890;9.278;2022-08-11T15:14:09;1.50;;;1.40;;
9968;SDS011;5025;48.890;9.278;2022-08-11T15:16:36;1.50;;;1.50;;
9968;SDS011;5025;48.890;9.278;2022-08-11T15:19:23;1.60;;;1.50;;
9968;SDS011;5025;48.890;9.278;2022-08-11T15:21:49;1.38;;;1.30;;
9968;SDS011;5025;48.890;9.278;2022-08-11T15:24:34;1.40;;;1.40;;
9968;SDS011;5025;48.890;9.278;2022-08-11T15:27:03;1.50;;;1.40;;
9968;SDS011;5025;48.890;9.278;2022-08-11T15:29:50;1.53;;;1.50;;
9968;SDS011;5025;48.890;9.278;2022-08-11T15:32:36;1.30;;;1.30;;
9968;SDS011;5025;48.890;9.278;2022-08-11T15:35:23;1.50;;;1.30;;
9968;SDS011;5025;48.890;9.278;2022-08-11T15:38:09;1.37;;;1.37;;
9968;SDS011;5025;48.890;9.278;2022-08-11T15:40:38;1.50;;;1.40;;
9968;SDS011;5025;48.890;9.278;2022-08-11T15:43:31;1.70;;;1.60;;
9968;SDS011;5025;48.890;9.278;2022-08-11T15:46:30;1.70;;;1.60;;
9968;SDS011;5025;48.890;9.278;2022-08-11T15:49:03;1.55;;;1.45;;
9968;SDS011;5025;48.890;9.278;2022-08-11T15:51:36;2.10;;;1.37;;
9968;SDS011;5025;48.890;9.278;2022-08-11T15:54:09;1.50;;;1.50;;
9968;SDS011;5025;48.890;9.278;2022-08-11T15:56:40;1.60;;;1.60;;
9968;SDS011;5025;48.890;9.278;2022-08-11T15:59:09;1.73;;;1.60;;
9968;SDS011;5025;48.890;9.278;2022-08-11T16:01:54;1.27;;;1.27;;
9968;SDS011;5025;48.890;9.278;2022-08-11T16:04:40;1.70;;;1.60;;
9968;SDS011;5025;48.890;9.278;2022-08-11T16:07:15;1.80;;;1.70;;
9968;SDS011;5025;48.890;9.278;2022-08-11T16:09:44;1.50;;;1.50;;
9968;SDS011;5025;48.890;9.278;2022-08-11T16:12:31;1.57;;;1.47;;
9968;SDS011;5025;48.890;9.278;2022-08-11T16:15:04;3.07;;;1.70;;
9968;SDS011;5025;48.890;9.278;2022-08-11T16:17:57;1.50;;;1.50;;
9968;SDS011;5025;48.890;9.278;2022-08-11T16:20:26;1.43;;;1.40;;
9968;SDS011;5025;48.890;9.278;2022-08-11T16:22:55;1.53;;;1.50;;
9968;SDS011;5025;48.890;9.278;2022-08-11T16:25:24;1.67;;;1.60;;
9968;SDS011;5025;48.890;9.278;2022-08-11T16:27:52;1.50;;;1.50;;
9968;SDS011;5025;48.890;9.278;2022-08-11T16:30:40;1.67;;;1.57;;
9968;SDS011;5025;48.890;9.278;2022-08-11T16:33:08;1.30;;;1.30;;
9968;SDS011;5025;48.890;9.278;2022-08-11T16:35:35;1.50;;;1.50;;
9968;SDS011;5025;48.890;9.278;2022-08-11T16:38:22;1.50;;;1.50;;
9968;SDS011;5025;48.890;9.278;2022-08-11T16:41:10;1.60;;;1.60;;
9968;SDS011;5025;48.890;9.278;2022-08-11T16:43:40;1.43;;;1.43;;
9968;SDS011;5025;48.890;9.278;2022-08-11T16:46:28;1.30;;;1.30;;
9968;SDS011;5025;48.890;9.278;2022-08-11T16:49:17;2.00;;;1.50;;
9968;SDS011;5025;48.890;9.278;2022-08-11T16:51:45;1.33;;;1.33;;
9968;SDS011;5025;48.890;9.278;2022-08-11T16:54:11;1.60;;;1.50;;
9968;SDS011;5025;48.890;9.278;2022-08-11T16:56:46;1.40;;;1.30;;
9968;SDS011;5025;48.890;9.278;2022-08-11T17:01:58;1.77;;;1.70;;
9968;SDS011;5025;48.890;9.278;2022-08-11T17:04:30;1.50;;;1.50;;
9968;SDS011;5025;48.890;9.278;2022-08-11T17:07:23;1.50;;;1.50;;
9968;SDS011;5025;48.890;9.278;2022-08-11T17:10:10;1.50;;;1.50;;
9968;SDS011;5025;48.890;9.278;2022-08-11T17:12:58;1.60;;;1.40;;
9968;SDS011;5025;48.890;9.278;2022-08-11T17:15:36;1.50;;;1.50;;
9968;SDS011;5025;48.890;9.278;2022-08-11T17:18:24;2.07;;;1.60;;
9968;SDS011;5025;48.890;9.278;2022-08-11T17:21:07;1.80;;;1.60;;
9968;SDS011;5025;48.890;9.278;2022-08-11T17:23:38;1.53;;;1.50;;
9968;SDS011;5025;48.890;9.278;2022-08-11T17:26:27;1.60;;;1.50;;
9968;SDS011;5025;48.890;9.278;2022-08-11T17:29:18;1.70;;;1.60;;
9968;SDS011;5025;48.890;9.278;2022-08-11T17:31:47;1.60;;;1.50;;
9968;SDS011;5025;48.890;9.278;2022-08-11T17:34:32;1.50;;;1.50;;
9968;SDS011;5025;48.890;9.278;2022-08-11T17:37:17;1.47;;;1.47;;
9968;SDS011;5025;48.890;9.278;2022-08-11T17:39:44;1.73;;;1.60;;
9968;SDS011;5025;48.890;9.278;2022-08-11T17:42:10;1.50;;;1.50;;
9968;SDS011;5025;48.890;9.278;2022-08-11T17:44:55;1.70;;;1.60;;
9968;SDS011;5025;48.890;9.278;2022-08-11T17:47:40;1.83;;;1.73;;
9968;SDS011;5025;48.890;9.278;2022-08-11T17:50:26;1.70;;;1.70;;
9968;SDS011;5025;48.890;9.278;2022-08-11T17:52:53;1.63;;;1.60;;
9968;SDS011;5025;48.890;9.278;2022-08-11T17:55:37;1.67;;;1.57;;
9968;SDS011;5025;48.890;9.278;2022-08-11T17:58:22;2.30;;;1.90;;
9968;SDS011;5025;48.890;9.278;2022-08-11T18:01:08;2.07;;;1.97;;
9968;SDS011;5025;48.890;9.278;2022-08-11T18:03:36;1.90;;;1.80;;
9968;SDS011;5025;48.890;9.278;2022-08-11T18:06:05;1.77;;;1.67;;
9968;SDS011;5025;48.890;9.278;2022-08-11T18:08:32;1.73;;;1.60;;
9968;SDS011;5025;48.890;9.278;2022-08-11T18:11:21;1.97;;;1.77;;
9968;SDS011;5025;48.890;9.278;2022-08-11T18:14:08;1.80;;;1.70;;
9968;SDS011;5025;48.890;9.278;2022-08-11T18:16:54;1.87;;;1.63;;
9968;SDS011;5025;48.890;9.278;2022-08-11T18:19:38;1.63;;;1.53;;
9968;SDS011;5025;48.890;9.278;2022-08-11T18:22:24;1.80;;;1.70;;
9968;SDS011;5025;48.890;9.278;2022-08-11T18:25:14;1.80;;;1.70;;
9968;SDS011;5025;48.890;9.278;2022-08-11T18:28:00;1.90;;;1.80;;
9968;SDS011;5025;48.890;9.278;2022-08-11T18:30:49;2.77;;;1.60;;
9968;SDS011;5025;48.890;9.278;2022-08-11T18:33:45;1.53;;;1.47;;
9968;SDS011;5025;48.890;9.278;2022-08-11T18:36:35;1.40;;;1.40;;
9968;SDS011;5025;48.890;9.278;2022-08-11T18:39:23;1.40;;;1.40;;
9968;SDS011;5025;48.890;9.278;2022-08-11T18:42:11;1.43;;;1.37;;
9968;SDS011;5025;48.890;9.278;2022-08-11T18:44:59;1.70;;;1.60;;
9968;SDS011;5025;48.890;9.278;2022-08-11T18:47:47;1.57;;;1.50;;
9968;SDS011;5025;48.890;9.278;2022-08-11T18:50:32;3.00;;;1.50;;
9968;SDS011;5025;48.890;9.278;2022-08-11T18:53:17;1.57;;;1.50;;
9968;SDS011;5025;48.890;9.278;2022-08-11T18:56:02;1.70;;;1.60;;
9968;SDS011;5025;48.890;9.278;2022-08-11T18:58:47;1.60;;;1.57;;
9968;SDS011;5025;48.890;9.278;2022-08-11T19:01:33;2.30;;;1.53;;
9968;SDS011;5025;48.890;9.278;2022-08-11T19:04:19;2.10;;;1.70;;
9968;SDS011;5025;48.890;9.278;2022-08-11T19:07:04;2.40;;;1.77;;
9968;SDS011;5025;48.890;9.278;2022-08-11T19:09:51;2.10;;;1.60;;
9968;SDS011;5025;48.890;9.278;2022-08-11T19:12:38;1.73;;;1.63;;
9968;SDS011;5025;48.890;9.278;2022-08-11T19:15:25;2.13;;;1.60;;
9968;SDS011;5025;48.890;9.278;2022-08-11T19:18:12;1.50;;;1.40;;
9968;SDS011;5025;48.890;9.278;2022-08-11T19:20:59;1.87;;;1.70;;
9968;SDS011;5025;48.890;9.278;2022-08-11T19:23:45;1.50;;;1.40;;
9968;SDS011;5025;48.890;9.278;2022-08-11T19:26:33;1.90;;;1.60;;
9968;SDS011;5025;48.890;9.278;2022-08-11T19:29:19;1.60;;;1.50;;